createdAt,value
2018-12-21T00:02:30.031Z,4.57
2018-12-21T00:07:32.561Z,4.61
2018-12-21T00:12:34.847Z,4.64
2018-12-21T00:17:37.168Z,4.60
2018-12-21T00:22:39.579Z,4.60
2018-12-21T00:27:41.948Z,4.60
2018-12-21T00:32:50.187Z,4.64
2018-12-21T00:37:58.362Z,4.69
2018-12-21T00:43:05.574Z,4.70
2018-12-21T00:48:08.464Z,4.75
2018-12-21T00:53:10.954Z,4.71
2018-12-21T00:58:13.421Z,4.66
2018-12-21T01:03:15.876Z,4.70
2018-12-21T01:08:18.273Z,4.67
2018-12-21T01:13:20.715Z,4.63
2018-12-21T01:18:25.058Z,4.64
2018-12-21T01:23:27.433Z,4.69
2018-12-21T01:28:29.713Z,4.80
2018-12-21T01:33:32.357Z,4.85
2018-12-21T01:38:34.777Z,4.91
2018-12-21T01:43:37.049Z,4.95
2018-12-21T01:48:39.320Z,5.03
2018-12-21T01:53:41.753Z,5.04
2018-12-21T01:58:44.027Z,5.10
2018-12-21T02:03:46.525Z,5.12
2018-12-21T02:08:48.842Z,5.12
2018-12-21T02:13:51.129Z,5.19
2018-12-21T02:18:53.565Z,5.19
2018-12-21T02:23:55.842Z,5.16
2018-12-21T02:28:58.427Z,5.13
2018-12-21T02:34:00.745Z,5.13
2018-12-21T02:39:05.590Z,5.09
2018-12-21T02:44:08.185Z,5.10
2018-12-21T02:49:10.454Z,5.16
2018-12-21T02:54:12.906Z,5.15
2018-12-21T02:59:15.258Z,5.11
2018-12-21T03:04:17.720Z,5.08
2018-12-21T03:09:20.786Z,5.03
2018-12-21T03:14:23.062Z,5.06
2018-12-21T03:19:26.446Z,5.03
2018-12-21T03:24:28.768Z,5.07
2018-12-21T03:29:32.078Z,5.12
2018-12-21T03:34:34.445Z,5.10
2018-12-21T03:39:36.838Z,5.10
2018-12-21T03:44:39.238Z,5.11
2018-12-21T03:49:41.549Z,5.08
2018-12-21T03:54:43.849Z,5.04
2018-12-21T03:59:46.193Z,5.07
2018-12-21T04:04:48.617Z,5.05
2018-12-21T04:09:50.933Z,5.06
2018-12-21T04:14:53.225Z,5.09
2018-12-21T04:19:55.540Z,5.05
2018-12-21T04:24:57.812Z,5.05
2018-12-21T04:30:00.175Z,5.01
2018-12-21T04:35:02.626Z,5.00
2018-12-21T04:40:05.970Z,5.03
2018-12-21T04:45:08.375Z,5.06
2018-12-21T04:50:10.799Z,5.10
2018-12-21T04:55:13.180Z,5.22
2018-12-21T05:00:15.950Z,5.25
2018-12-21T05:05:18.328Z,5.28
2018-12-21T05:10:20.649Z,5.30
2018-12-21T05:15:22.994Z,5.44
2018-12-21T05:20:25.399Z,5.45
2018-12-21T05:25:30.586Z,5.43
2018-12-21T05:30:32.926Z,5.50
2018-12-21T05:35:35.320Z,5.50
2018-12-21T05:40:37.622Z,5.53
2018-12-21T05:45:40.000Z,5.50
2018-12-21T05:50:42.373Z,5.47
2018-12-21T05:55:45.855Z,5.50
2018-12-21T06:00:48.176Z,5.57
2018-12-21T06:05:50.640Z,5.64
2018-12-21T06:10:52.975Z,5.58
2018-12-21T06:15:56.406Z,5.62
2018-12-21T06:20:58.704Z,5.63
2018-12-21T06:26:01.083Z,5.73
2018-12-21T06:31:03.373Z,5.74
2018-12-21T06:36:05.743Z,5.75
2018-12-21T06:41:08.209Z,5.74
2018-12-21T06:46:14.288Z,5.79
2018-12-21T06:51:14.994Z,5.77
2018-12-21T06:56:17.303Z,5.75
2018-12-21T07:01:19.607Z,5.78
2018-12-21T07:06:22.019Z,5.76
2018-12-21T07:11:24.380Z,5.76
2018-12-21T07:16:26.734Z,5.75
2018-12-21T07:21:29.112Z,5.73
2018-12-21T07:26:31.704Z,5.72
2018-12-21T07:31:33.998Z,5.73
2018-12-21T07:36:36.524Z,5.77
2018-12-21T07:41:39.269Z,5.81
2018-12-21T07:46:41.644Z,5.88
2018-12-21T07:51:44.040Z,5.98
2018-12-21T07:56:46.325Z,6.11
2018-12-21T08:01:48.636Z,6.17
2018-12-21T08:06:51.094Z,6.18
2018-12-21T08:11:53.731Z,6.18
2018-12-21T08:16:56.194Z,6.19
2018-12-21T08:21:58.804Z,6.21
2018-12-21T08:27:01.137Z,6.20
2018-12-21T08:32:03.436Z,6.19
2018-12-21T08:37:05.821Z,6.15
2018-12-21T08:42:08.119Z,6.14
2018-12-21T08:47:10.535Z,6.14
2018-12-21T08:52:12.952Z,6.15
2018-12-21T08:57:15.773Z,6.17
2018-12-21T09:02:18.173Z,6.20
2018-12-21T09:07:20.878Z,6.26
2018-12-21T09:12:24.164Z,6.28
2018-12-21T09:17:27.449Z,6.27
2018-12-21T09:22:30.127Z,6.40
2018-12-21T09:27:33.227Z,6.44
2018-12-21T09:32:36.338Z,6.46
2018-12-21T09:37:38.806Z,6.23
2018-12-21T09:42:41.746Z,6.06
2018-12-21T09:47:44.108Z,5.95
2018-12-21T09:52:46.561Z,5.86
2018-12-21T09:57:49.891Z,5.78
2018-12-21T10:02:52.203Z,5.74
2018-12-21T10:07:54.561Z,5.69
2018-12-21T10:12:56.935Z,5.70
2018-12-21T10:17:59.342Z,5.66
2018-12-21T10:23:01.923Z,5.68
2018-12-21T10:28:04.609Z,5.70
2018-12-21T10:33:07.428Z,5.66
2018-12-21T10:38:09.928Z,5.66
2018-12-21T10:43:12.207Z,5.71
2018-12-21T10:48:14.579Z,5.76
2018-12-21T10:53:17.281Z,5.82
2018-12-21T10:58:19.586Z,5.85
2018-12-21T11:03:22.177Z,5.93
2018-12-21T11:08:25.487Z,5.92
2018-12-21T11:13:27.776Z,5.95
2018-12-21T11:18:30.123Z,5.99
2018-12-21T11:23:32.474Z,6.02
2018-12-21T11:28:34.760Z,6.04
2018-12-21T11:33:37.073Z,6.03
2018-12-21T11:38:39.411Z,6.05
2018-12-21T11:43:41.799Z,6.08
2018-12-21T11:48:45.400Z,6.04
2018-12-21T11:53:47.805Z,6.03
2018-12-21T11:58:50.148Z,6.04
2018-12-21T12:03:52.477Z,6.10
2018-12-21T12:08:54.913Z,6.18
2018-12-21T12:13:57.367Z,6.22
2018-12-21T12:18:59.726Z,6.27
2018-12-21T12:24:02.162Z,6.32
2018-12-21T12:29:05.543Z,6.37
2018-12-21T12:34:08.223Z,6.48
2018-12-21T12:39:10.584Z,6.61
2018-12-21T12:44:19.448Z,6.68
2018-12-21T12:49:22.627Z,6.75
2018-12-21T12:54:25.054Z,6.91
2018-12-21T12:59:27.452Z,6.94
2018-12-21T13:04:29.686Z,7.02
2018-12-21T13:09:32.090Z,7.11
2018-12-21T13:14:34.310Z,7.23
2018-12-21T13:19:36.599Z,7.32
2018-12-21T13:24:38.919Z,7.37
2018-12-21T13:29:41.226Z,7.40
2018-12-21T13:34:43.829Z,7.43
2018-12-21T13:39:46.104Z,7.44
2018-12-21T13:44:48.585Z,7.48
2018-12-21T13:49:50.864Z,7.48
2018-12-21T13:54:53.121Z,7.54
2018-12-21T13:59:56.460Z,7.71
2018-12-21T14:04:58.712Z,7.76
2018-12-21T14:10:01.037Z,7.97
2018-12-21T14:15:03.537Z,8.00
2018-12-21T14:20:09.209Z,8.05
2018-12-21T14:25:11.656Z,8.12
2018-12-21T14:30:13.977Z,8.15
2018-12-21T14:35:16.261Z,8.19
2018-12-21T14:40:18.542Z,8.21
2018-12-21T14:45:20.808Z,8.33
2018-12-21T14:50:23.061Z,8.39
2018-12-21T14:55:25.285Z,8.48
2018-12-21T15:00:27.620Z,8.46
2018-12-21T15:05:29.882Z,8.41
2018-12-21T15:10:32.139Z,8.43
2018-12-21T15:15:34.711Z,8.57
2018-12-21T15:20:36.973Z,8.53
2018-12-21T15:25:46.017Z,8.66
2018-12-21T15:30:44.264Z,8.71
2018-12-21T15:35:46.495Z,8.87
2018-12-21T15:40:48.787Z,9.01
2018-12-21T15:45:51.273Z,8.91
2018-12-21T15:50:53.947Z,8.93
2018-12-21T15:55:56.291Z,9.01
2018-12-21T16:00:58.583Z,9.12
2018-12-21T16:06:00.902Z,9.13
2018-12-21T16:11:03.345Z,9.21
2018-12-21T16:16:05.937Z,9.34
2018-12-21T16:21:09.635Z,9.37
2018-12-21T16:26:13.051Z,9.51
2018-12-21T16:31:16.076Z,9.59
2018-12-21T16:36:19.432Z,9.53
2018-12-21T16:41:21.859Z,9.67
2018-12-21T16:46:24.083Z,9.57
2018-12-21T16:51:26.421Z,9.53
2018-12-21T16:56:28.665Z,9.67
2018-12-21T17:01:30.965Z,9.74
2018-12-21T17:06:33.249Z,9.74
2018-12-21T17:11:35.490Z,9.70
2018-12-21T17:16:37.731Z,9.83
2018-12-21T17:21:40.027Z,9.89
2018-12-21T17:26:44.537Z,9.82
2018-12-21T17:31:46.802Z,9.81
2018-12-21T17:36:49.065Z,9.99
2018-12-21T17:41:51.741Z,9.94
2018-12-21T17:46:53.984Z,10.06
2018-12-21T17:52:01.369Z,10.11
2018-12-21T17:57:00.563Z,10.14
2018-12-21T18:02:02.825Z,10.22
2018-12-21T18:07:06.285Z,10.20
2018-12-21T18:12:08.888Z,10.26
2018-12-21T18:17:12.917Z,10.16
2018-12-21T18:22:18.748Z,10.14
2018-12-21T18:27:21.053Z,10.06
2018-12-21T18:32:35.190Z,10.01
2018-12-21T18:37:57.761Z,10.06
2018-12-21T18:43:00.011Z,10.13
2018-12-21T18:48:02.373Z,10.24
2018-12-21T18:53:04.620Z,10.28
2018-12-21T18:58:07.540Z,10.27
2018-12-21T19:03:09.782Z,10.31
2018-12-21T19:08:12.478Z,10.50
2018-12-21T19:13:14.753Z,10.49
2018-12-21T19:18:17.056Z,10.70
2018-12-21T19:23:20.099Z,10.61
2018-12-21T19:28:22.435Z,10.69
2018-12-21T19:33:25.801Z,11.08
2018-12-21T19:38:28.054Z,11.07
2018-12-21T19:43:30.297Z,11.02
2018-12-21T19:48:32.556Z,10.71
2018-12-21T19:53:34.779Z,10.33
2018-12-21T19:58:37.020Z,10.06
2018-12-21T20:03:39.246Z,9.91
2018-12-21T20:08:41.563Z,9.66
2018-12-21T20:13:43.821Z,9.48
2018-12-21T20:18:47.706Z,9.43
2018-12-21T20:23:50.185Z,9.34
2018-12-21T20:28:52.464Z,9.17
2018-12-21T20:33:54.803Z,9.14
2018-12-21T20:38:57.188Z,9.27
2018-12-21T20:43:59.431Z,9.43
2018-12-21T20:49:01.789Z,9.57
2018-12-21T20:54:04.192Z,9.90
2018-12-21T20:59:09.561Z,10.05
2018-12-21T21:04:11.937Z,9.97
2018-12-21T21:09:14.929Z,9.98
2018-12-21T21:14:18.584Z,9.94
2018-12-21T21:19:21.195Z,9.96
2018-12-21T21:24:23.589Z,10.24
2018-12-21T21:29:25.827Z,10.32
2018-12-21T21:34:28.076Z,10.04
2018-12-21T21:39:30.357Z,9.98
2018-12-21T21:44:32.684Z,9.97
2018-12-21T21:49:34.912Z,10.12
2018-12-21T21:54:37.159Z,10.08
2018-12-21T21:59:39.423Z,10.32
2018-12-21T22:04:41.833Z,10.44
2018-12-21T22:09:44.188Z,10.56
2018-12-21T22:14:46.518Z,10.50
2018-12-21T22:19:48.781Z,10.34
2018-12-21T22:24:51.008Z,10.34
2018-12-21T22:29:53.333Z,10.42
2018-12-21T22:34:55.569Z,10.55
2018-12-21T22:39:57.904Z,10.46
2018-12-21T22:45:00.164Z,10.48
2018-12-21T22:50:02.681Z,10.51
2018-12-21T22:55:06.465Z,10.44
2018-12-21T23:00:16.311Z,10.24
2018-12-21T23:05:18.568Z,10.28
2018-12-21T23:10:20.821Z,10.08
2018-12-21T23:15:23.185Z,10.32
2018-12-21T23:20:25.463Z,10.45
2018-12-21T23:25:27.836Z,10.38
2018-12-21T23:30:30.128Z,10.30
2018-12-21T23:35:32.388Z,10.31
2018-12-21T23:40:34.665Z,10.47
2018-12-21T23:45:36.960Z,10.30
2018-12-21T23:50:39.492Z,10.42
2018-12-21T23:55:41.884Z,10.36
